Time;durP1;ratioP1;P1;durP2;ratioP2;P2;SDS_P1;SDS_P2;PMS_P1;PMS_P2;Temp;Humidity;BMP_temperature;BMP_pressure;BME280_temperature;BME280_humidity;BME280_pressure;Samples;Min_cycle;Max_cycle;Signal;HPM_P1;HPM_P2
2021/07/02 11:25:23;;;;;;;3.35;0.77;;;;;;;;;;7122535;27;20567;-80
2021/07/02 11:28:50;;;;;;;1.25;0.68;;;;;;;;;;7099064;27;20038;-80
2021/07/02 11:32:30;;;;;;;0.80;0.60;;;;;;;;;;7109690;27;20507;-78
2021/07/02 11:35:56;;;;;;;1.48;0.80;;;;;;;;;;7119046;27;20461;-78
2021/07/02 11:39:17;;;;;;;1.15;0.70;;;;;;;;;;7128904;27;20054;-78
2021/07/02 11:42:38;;;;;;;6.15;1.02;;;;;;;;;;7118562;27;20046;-78
2021/07/02 11:46:19;;;;;;;2.97;0.80;;;;;;;;;;7104915;27;20051;-78
2021/07/02 11:49:47;;;;;;;2.00;0.65;;;;;;;;;;7111855;27;20487;-77
2021/07/02 11:53:08;;;;;;;1.13;0.65;;;;;;;;;;7091454;27;20472;-76
2021/07/02 11:56:30;;;;;;;4.78;0.93;;;;;;;;;;7121928;27;20049;-77
2021/07/02 12:00:04;;;;;;;2.28;0.50;;;;;;;;;;7114018;27;20472;-77
2021/07/02 12:03:25;;;;;;;1.92;0.50;;;;;;;;;;7097532;27;20479;-77
2021/07/02 12:06:47;;;;;;;1.65;0.70;;;;;;;;;;7130618;27;20057;-76
2021/07/02 12:10:10;;;;;;;1.17;0.60;;;;;;;;;;7102934;27;20046;-77
2021/07/02 12:13:32;;;;;;;0.75;0.57;;;;;;;;;;7075917;27;20496;-77
2021/07/02 12:16:54;;;;;;;5.50;0.70;;;;;;;;;;7112558;27;20050;-77
2021/07/02 12:20:15;;;;;;;1.38;0.52;;;;;;;;;;7125082;27;20051;-77
2021/07/02 12:23:43;;;;;;;0.50;0.50;;;;;;;;;;7110021;27;20129;-76
2021/07/02 12:27:06;;;;;;;0.40;0.40;;;;;;;;;;7073646;27;20047;-77
2021/07/02 12:30:27;;;;;;;1.42;0.60;;;;;;;;;;7125078;27;20400;-78
2021/07/02 12:33:48;;;;;;;1.25;0.43;;;;;;;;;;7128832;27;20047;-78
2021/07/02 12:37:10;;;;;;;0.75;0.50;;;;;;;;;;7103357;27;20078;-78
2021/07/02 12:40:30;;;;;;;1.23;0.80;;;;;;;;;;7103998;27;20047;-79
2021/07/02 12:43:50;;;;;;;1.05;0.60;;;;;;;;;;7093541;27;20070;-81
2021/07/02 12:47:12;;;;;;;3.13;0.75;;;;;;;;;;7092853;27;20062;-80
2021/07/02 12:50:37;;;;;;;3.00;0.80;;;;;;;;;;7100273;27;20034;-79
2021/07/02 12:57:49;;;;;;;3.60;0.63;;;;;;;;;;7111075;27;20154;-78
2021/07/02 13:01:10;;;;;;;0.88;0.77;;;;;;;;;;7111191;27;20130;-77
2021/07/02 13:04:42;;;;;;;1.73;0.77;;;;;;;;;;7111351;27;20047;-79
2021/07/02 13:08:09;;;;;;;1.15;0.60;;;;;;;;;;7091676;27;20373;-80
2021/07/02 13:11:29;;;;;;;0.85;0.50;;;;;;;;;;7111694;27;20407;-78
2021/07/02 13:15:02;;;;;;;0.65;0.63;;;;;;;;;;7107037;27;20504;-78
2021/07/02 13:18:38;;;;;;;1.00;0.68;;;;;;;;;;7084616;27;20051;-78
2021/07/02 13:22:18;;;;;;;2.30;0.75;;;;;;;;;;7078862;27;20053;-78
2021/07/02 13:25:42;;;;;;;2.60;0.65;;;;;;;;;;7122001;22;20128;-80
2021/07/02 13:29:11;;;;;;;1.17;0.63;;;;;;;;;;7027782;28;20490;-78
2021/07/02 13:32:32;;;;;;;1.95;0.65;;;;;;;;;;7029551;28;20131;-78
2021/07/02 13:35:52;;;;;;;3.88;0.70;;;;;;;;;;7010137;28;20044;-77
2021/07/02 13:39:23;;;;;;;0.60;0.50;;;;;;;;;;7008914;28;20542;-79
2021/07/02 13:42:43;;;;;;;1.10;0.60;;;;;;;;;;7008309;28;20054;-79
2021/07/02 13:46:05;;;;;;;1.08;0.60;;;;;;;;;;7025024;28;20032;-79
2021/07/02 13:49:25;;;;;;;0.88;0.60;;;;;;;;;;7007539;28;20043;-78
2021/07/02 13:52:46;;;;;;;0.60;0.60;;;;;;;;;;7025444;28;20130;-79
2021/07/02 13:56:06;;;;;;;1.00;0.60;;;;;;;;;;7026123;28;20051;-78
2021/07/02 13:59:27;;;;;;;1.05;0.60;;;;;;;;;;7025570;28;20091;-78
2021/07/02 14:02:47;;;;;;;0.50;0.40;;;;;;;;;;7026441;28;20531;-78
2021/07/02 14:06:08;;;;;;;1.15;0.60;;;;;;;;;;7025398;28;20390;-82
2021/07/02 14:09:28;;;;;;;2.35;0.68;;;;;;;;;;7025881;28;20100;-81
2021/07/02 14:12:49;;;;;;;1.02;0.70;;;;;;;;;;7000036;28;20126;-81
2021/07/02 14:16:09;;;;;;;1.30;0.80;;;;;;;;;;7015141;28;20048;-82
2021/07/02 14:19:29;;;;;;;1.23;0.63;;;;;;;;;;7011139;28;20044;-80
2021/07/02 14:22:50;;;;;;;1.17;0.65;;;;;;;;;;7009206;28;20071;-81
2021/07/02 14:26:11;;;;;;;0.85;0.73;;;;;;;;;;7025229;28;20044;-81
2021/07/02 14:29:31;;;;;;;1.40;0.75;;;;;;;;;;7024232;28;20533;-80
2021/07/02 14:32:52;;;;;;;3.25;0.60;;;;;;;;;;7025039;28;20066;-81
2021/07/02 14:36:12;;;;;;;1.85;0.60;;;;;;;;;;7024718;28;20071;-82
2021/07/02 14:39:32;;;;;;;0.75;0.73;;;;;;;;;;7024771;28;20572;-80
2021/07/02 14:42:53;;;;;;;1.70;0.82;;;;;;;;;;7005979;28;20493;-83
2021/07/02 14:46:13;;;;;;;0.77;0.63;;;;;;;;;;6997379;28;20068;-82
2021/07/02 14:49:34;;;;;;;3.28;1.27;;;;;;;;;;7020298;28;20074;-82
2021/07/02 14:52:54;;;;;;;3.20;1.17;;;;;;;;;;7006444;28;20079;-84
2021/07/02 14:56:15;;;;;;;4.63;0.80;;;;;;;;;;7024581;28;20040;-83
2021/07/02 14:59:35;;;;;;;1.60;0.73;;;;;;;;;;7023633;28;20176;-81
2021/07/02 15:02:56;;;;;;;2.95;0.90;;;;;;;;;;6991860;28;20076;-81
2021/07/02 15:06:16;;;;;;;0.88;0.60;;;;;;;;;;7010345;28;20490;-82
2021/07/02 15:09:37;;;;;;;6.40;1.15;;;;;;;;;;7023745;28;20051;-81
2021/07/02 15:12:59;;;;;;;2.58;1.00;;;;;;;;;;7024168;28;20054;-81
2021/07/02 15:16:20;;;;;;;1.63;0.80;;;;;;;;;;7005482;28;20139;-82
2021/07/02 15:19:40;;;;;;;0.88;0.80;;;;;;;;;;7023856;28;20047;-81
2021/07/02 15:23:01;;;;;;;1.73;0.60;;;;;;;;;;7022153;28;20048;-81
2021/07/02 15:26:21;;;;;;;1.05;0.70;;;;;;;;;;7009047;28;20482;-81
2021/07/02 15:30:19;;;;;;;2.03;0.70;;;;;;;;;;7023482;28;20052;-81
2021/07/02 15:33:39;;;;;;;0.50;0.50;;;;;;;;;;7023795;28;20051;-81
2021/07/02 15:37:00;;;;;;;0.80;0.52;;;;;;;;;;7023623;28;20130;-81
2021/07/02 15:40:21;;;;;;;3.42;0.80;;;;;;;;;;7023476;28;20047;-81
2021/07/02 15:43:42;;;;;;;0.90;0.60;;;;;;;;;;7023315;28;20036;-81
2021/07/02 15:47:03;;;;;;;0.95;0.70;;;;;;;;;;7023216;28;20047;-82
2021/07/02 15:50:23;;;;;;;0.60;0.60;;;;;;;;;;7005130;28;20036;-81
2021/07/02 15:53:44;;;;;;;3.22;0.70;;;;;;;;;;7004584;28;20057;-80
2021/07/02 15:57:04;;;;;;;1.50;0.68;;;;;;;;;;7023492;28;20076;-81
2021/07/02 16:00:25;;;;;;;1.10;0.63;;;;;;;;;;7023126;28;20458;-81
2021/07/02 16:03:51;;;;;;;1.85;0.90;;;;;;;;;;7023291;28;20155;-81
2021/07/02 16:07:11;;;;;;;3.55;0.70;;;;;;;;;;7023074;28;20050;-81
2021/07/02 16:10:33;;;;;;;1.42;0.68;;;;;;;;;;7025469;28;20048;-81
2021/07/02 16:13:53;;;;;;;1.23;0.82;;;;;;;;;;7027757;28;20040;-81
2021/07/02 16:17:14;;;;;;;0.60;0.60;;;;;;;;;;7027933;28;20044;-81
2021/07/02 16:20:38;;;;;;;1.60;0.77;;;;;;;;;;7027610;28;20048;-79
2021/07/02 16:23:59;;;;;;;0.60;0.60;;;;;;;;;;7027714;28;20094;-81
2021/07/02 16:27:21;;;;;;;0.65;0.65;;;;;;;;;;7009462;28;20131;-80
2021/07/02 16:30:41;;;;;;;4.13;0.85;;;;;;;;;;7027487;28;20094;-80
2021/07/02 16:34:02;;;;;;;0.75;0.70;;;;;;;;;;7027542;28;20040;-80
2021/07/02 16:37:22;;;;;;;3.42;0.80;;;;;;;;;;7024986;28;20059;-81
2021/07/02 16:40:43;;;;;;;0.60;0.60;;;;;;;;;;7027489;28;20052;-81
2021/07/02 16:44:03;;;;;;;0.68;0.68;;;;;;;;;;7027425;28;20115;-83
2021/07/02 16:47:24;;;;;;;1.70;0.60;;;;;;;;;;7026472;28;20476;-80
2021/07/02 16:50:44;;;;;;;2.95;0.90;;;;;;;;;;7027390;28;20048;-80
2021/07/02 16:54:05;;;;;;;1.77;0.70;;;;;;;;;;7026892;28;20044;-80
2021/07/02 16:57:25;;;;;;;0.90;0.80;;;;;;;;;;7027121;28;20047;-80
2021/07/02 17:00:45;;;;;;;0.60;0.57;;;;;;;;;;7026602;28;20078;-80
2021/07/02 17:04:06;;;;;;;1.50;0.68;;;;;;;;;;7026958;28;20044;-79
2021/07/02 17:07:26;;;;;;;0.70;0.60;;;;;;;;;;7026481;28;20495;-80
2021/07/02 17:10:47;;;;;;;1.20;0.70;;;;;;;;;;7026834;28;20048;-79
2021/07/02 17:14:08;;;;;;;0.60;0.60;;;;;;;;;;7026753;28;20051;-80
2021/07/02 17:17:28;;;;;;;2.13;0.80;;;;;;;;;;7008250;28;20059;-80
2021/07/02 17:20:50;;;;;;;2.35;0.70;;;;;;;;;;7026326;28;20052;-80
2021/07/02 17:24:11;;;;;;;0.40;0.40;;;;;;;;;;7026245;28;20096;-80
2021/07/02 17:27:32;;;;;;;0.60;0.60;;;;;;;;;;7026145;28;20076;-80
2021/07/02 17:30:53;;;;;;;1.55;0.65;;;;;;;;;;7026372;28;20052;-79
2021/07/02 17:34:13;;;;;;;0.63;0.63;;;;;;;;;;7026020;28;20149;-80
2021/07/02 17:37:34;;;;;;;1.13;0.70;;;;;;;;;;7025974;28;20040;-79
2021/07/02 17:40:56;;;;;;;2.08;0.85;;;;;;;;;;7026181;28;20097;-80
2021/07/02 17:44:16;;;;;;;0.77;0.60;;;;;;;;;;7025551;28;20059;-80
2021/07/02 17:47:37;;;;;;;0.68;0.65;;;;;;;;;;7025876;28;20083;-80
2021/07/02 17:50:58;;;;;;;1.45;0.65;;;;;;;;;;7025343;28;20040;-79
2021/07/02 17:54:18;;;;;;;0.63;0.60;;;;;;;;;;7025775;28;20055;-79
2021/07/02 17:57:39;;;;;;;1.08;0.77;;;;;;;;;;6990622;28;20119;-80
2021/07/02 18:00:59;;;;;;;1.55;0.80;;;;;;;;;;7025078;28;20044;-81
2021/07/02 18:04:19;;;;;;;0.68;0.60;;;;;;;;;;7019682;28;20072;-77
2021/07/02 18:07:40;;;;;;;0.60;0.60;;;;;;;;;;7007731;28;20046;-77
2021/07/02 18:11:01;;;;;;;1.88;0.80;;;;;;;;;;7010762;28;20044;-77
2021/07/02 18:14:22;;;;;;;0.60;0.60;;;;;;;;;;7024851;28;20047;-77
2021/07/02 18:17:43;;;;;;;0.82;0.75;;;;;;;;;;7025627;28;20072;-77
2021/07/02 18:21:06;;;;;;;2.22;0.77;;;;;;;;;;7024777;28;20121;-78
2021/07/02 18:24:26;;;;;;;1.05;0.68;;;;;;;;;;7025200;28;20059;-77
2021/07/02 18:27:47;;;;;;;0.60;0.60;;;;;;;;;;7024595;28;20131;-77
2021/07/02 18:31:07;;;;;;;2.28;0.93;;;;;;;;;;7024878;28;20627;-77
2021/07/02 18:34:28;;;;;;;0.57;0.50;;;;;;;;;;7023979;28;20482;-77
2021/07/02 18:37:48;;;;;;;0.93;0.65;;;;;;;;;;7024554;28;20447;-77
2021/07/02 18:41:10;;;;;;;0.73;0.70;;;;;;;;;;7024522;28;20094;-77
2021/07/02 18:44:30;;;;;;;1.00;0.68;;;;;;;;;;7024634;28;20044;-77
2021/07/02 18:47:51;;;;;;;0.50;0.50;;;;;;;;;;7024325;28;20071;-76
2021/07/02 18:51:11;;;;;;;5.45;0.70;;;;;;;;;;7024198;28;20058;-76
2021/07/02 18:54:32;;;;;;;5.82;0.73;;;;;;;;;;7024073;28;20051;-78
2021/07/02 18:57:52;;;;;;;5.25;1.23;;;;;;;;;;7018871;28;20471;-76
2021/07/02 19:01:12;;;;;;;3.05;1.00;;;;;;;;;;7011967;28;20076;-76
2021/07/02 19:04:33;;;;;;;1.35;0.98;;;;;;;;;;7023642;28;20047;-75
2021/07/02 19:07:54;;;;;;;1.95;0.60;;;;;;;;;;6999175;28;20078;-76
2021/07/02 19:11:15;;;;;;;2.92;0.70;;;;;;;;;;7024204;28;20044;-76
2021/07/02 19:14:36;;;;;;;1.00;0.70;;;;;;;;;;7005367;28;20405;-76
2021/07/02 19:17:57;;;;;;;6.55;0.73;;;;;;;;;;7022562;28;20556;-77
2021/07/02 19:21:17;;;;;;;2.70;0.80;;;;;;;;;;7023567;28;20044;-77
2021/07/02 19:24:38;;;;;;;1.75;0.70;;;;;;;;;;7022154;28;20131;-75
2021/07/02 19:28:00;;;;;;;1.88;0.90;;;;;;;;;;7023895;28;20056;-77
2021/07/02 19:31:21;;;;;;;0.90;0.60;;;;;;;;;;7023758;28;20127;-77
2021/07/02 19:34:41;;;;;;;1.27;0.70;;;;;;;;;;7023037;28;20051;-77
2021/07/02 19:38:02;;;;;;;1.55;0.60;;;;;;;;;;7009294;28;20102;-77
2021/07/02 19:41:23;;;;;;;2.20;1.00;;;;;;;;;;6992672;28;20144;-77
2021/07/02 19:44:44;;;;;;;1.02;0.70;;;;;;;;;;7020403;28;20040;-77
2021/07/02 19:48:04;;;;;;;1.05;0.80;;;;;;;;;;7028573;28;20052;-77
2021/07/02 19:51:24;;;;;;;8.88;0.70;;;;;;;;;;7028353;28;20119;-77
2021/07/02 19:54:45;;;;;;;1.95;0.73;;;;;;;;;;7027324;28;20052;-77
2021/07/02 19:58:05;;;;;;;0.70;0.60;;;;;;;;;;7028119;28;20490;-77
2021/07/02 20:01:26;;;;;;;2.45;0.75;;;;;;;;;;7027800;28;20140;-77
2021/07/02 20:04:46;;;;;;;0.93;0.60;;;;;;;;;;7006037;28;20040;-77
2021/07/02 20:08:07;;;;;;;0.60;0.60;;;;;;;;;;7027974;28;20040;-77
2021/07/02 20:11:27;;;;;;;1.17;0.90;;;;;;;;;;7027762;28;20550;-77
2021/07/02 20:14:48;;;;;;;3.10;0.60;;;;;;;;;;7024108;28;20074;-77
2021/07/02 20:18:08;;;;;;;0.65;0.65;;;;;;;;;;7027829;28;20493;-77
2021/07/02 20:21:29;;;;;;;1.25;0.70;;;;;;;;;;7027829;28;20059;-78
2021/07/02 20:24:49;;;;;;;4.70;0.80;;;;;;;;;;7026723;28;20052;-77
2021/07/02 20:28:10;;;;;;;0.50;0.50;;;;;;;;;;7027927;28;20099;-77
2021/07/02 20:31:30;;;;;;;1.63;0.77;;;;;;;;;;7027044;28;20076;-77
2021/07/02 20:34:51;;;;;;;0.40;0.40;;;;;;;;;;7026802;28;20821;-77
2021/07/02 20:38:11;;;;;;;2.17;0.88;;;;;;;;;;7026992;28;20048;-77
2021/07/02 20:41:32;;;;;;;0.82;0.57;;;;;;;;;;7027562;28;20498;-80
2021/07/02 20:44:52;;;;;;;2.13;0.70;;;;;;;;;;7017080;28;20537;-77
2021/07/02 20:48:13;;;;;;;2.28;0.60;;;;;;;;;;7026585;28;20126;-77
2021/07/02 20:51:33;;;;;;;0.63;0.63;;;;;;;;;;7027216;28;20043;-76
2021/07/02 20:54:54;;;;;;;2.63;0.50;;;;;;;;;;7007612;28;20102;-77
2021/07/02 20:58:17;;;;;;;1.35;0.60;;;;;;;;;;7026781;28;20535;-77
2021/07/02 21:01:37;;;;;;;0.40;0.40;;;;;;;;;;7026698;28;20123;-77
2021/07/02 21:04:59;;;;;;;0.50;0.50;;;;;;;;;;7026743;28;20044;-77
2021/07/02 21:08:20;;;;;;;0.70;0.63;;;;;;;;;;7008569;28;20064;-77
2021/07/02 21:11:40;;;;;;;0.60;0.60;;;;;;;;;;7026754;28;20048;-77
2021/07/02 21:15:02;;;;;;;1.05;0.60;;;;;;;;;;7026929;28;20051;-77
2021/07/02 21:18:22;;;;;;;1.67;0.60;;;;;;;;;;7022948;28;20059;-77
2021/07/02 21:21:42;;;;;;;0.70;0.68;;;;;;;;;;7016526;28;20131;-76
2021/07/02 21:25:04;;;;;;;0.70;0.63;;;;;;;;;;7007162;28;20048;-77
2021/07/02 21:28:27;;;;;;;0.60;0.50;;;;;;;;;;7007452;28;20473;-77
2021/07/02 21:31:48;;;;;;;0.70;0.60;;;;;;;;;;7022897;28;20044;-77
2021/07/02 21:35:09;;;;;;;0.50;0.50;;;;;;;;;;7023759;28;20056;-77
2021/07/02 21:38:30;;;;;;;0.50;0.50;;;;;;;;;;7022511;28;20056;-78
2021/07/02 21:41:50;;;;;;;0.50;0.50;;;;;;;;;;7025769;28;20044;-75
2021/07/02 21:45:11;;;;;;;0.50;0.50;;;;;;;;;;7026076;28;20405;-78
2021/07/02 21:48:31;;;;;;;1.65;0.60;;;;;;;;;;7025496;28;20666;-78
2021/07/02 21:51:52;;;;;;;0.88;0.60;;;;;;;;;;7025487;28;20097;-77
2021/07/02 21:55:12;;;;;;;0.50;0.50;;;;;;;;;;7025719;28;20127;-77
2021/07/02 21:58:33;;;;;;;0.65;0.60;;;;;;;;;;7021667;28;20036;-76
2021/07/02 22:01:54;;;;;;;1.15;0.68;;;;;;;;;;7025551;28;20044;-77
2021/07/02 22:05:15;;;;;;;0.55;0.55;;;;;;;;;;7006413;28;20055;-77
2021/07/02 22:08:36;;;;;;;0.95;0.52;;;;;;;;;;7024565;28;20462;-77
2021/07/02 22:11:56;;;;;;;0.50;0.50;;;;;;;;;;7005645;28;20079;-77
2021/07/02 22:15:17;;;;;;;1.02;0.55;;;;;;;;;;7025116;28;20143;-77
2021/07/02 22:18:37;;;;;;;0.88;0.70;;;;;;;;;;7025109;28;20062;-77
2021/07/02 22:21:58;;;;;;;0.70;0.60;;;;;;;;;;7024566;28;20045;-78
2021/07/02 22:25:18;;;;;;;0.60;0.60;;;;;;;;;;7024245;28;20068;-78
2021/07/02 22:28:39;;;;;;;0.52;0.50;;;;;;;;;;7026441;28;20047;-77
2021/07/02 22:31:59;;;;;;;0.88;0.60;;;;;;;;;;7026323;28;20071;-78
2021/07/02 22:35:19;;;;;;;0.52;0.52;;;;;;;;;;7002368;28;20052;-78
2021/07/02 22:38:40;;;;;;;0.60;0.60;;;;;;;;;;7015727;28;20051;-77
2021/07/02 22:42:00;;;;;;;0.77;0.43;;;;;;;;;;7023381;28;20085;-78
2021/07/02 22:45:21;;;;;;;0.85;0.50;;;;;;;;;;7024015;28;20127;-78
2021/07/02 22:48:41;;;;;;;2.10;0.60;;;;;;;;;;7006362;28;20047;-77
2021/07/02 22:52:02;;;;;;;0.57;0.57;;;;;;;;;;7017919;28;20082;-78
2021/07/02 22:55:23;;;;;;;0.50;0.50;;;;;;;;;;7024100;28;20071;-77
2021/07/02 22:58:43;;;;;;;0.70;0.70;;;;;;;;;;7004758;28;20056;-77
2021/07/02 23:02:05;;;;;;;0.60;0.60;;;;;;;;;;7024270;28;20044;-77
2021/07/02 23:05:26;;;;;;;0.50;0.50;;;;;;;;;;7023667;28;20040;-76
2021/07/02 23:08:46;;;;;;;0.50;0.50;;;;;;;;;;7010621;28;20451;-77
2021/07/02 23:12:07;;;;;;;0.50;0.50;;;;;;;;;;7022421;28;20489;-77
2021/07/02 23:15:28;;;;;;;0.50;0.50;;;;;;;;;;7023776;28;20052;-77
2021/07/02 23:18:48;;;;;;;0.50;0.50;;;;;;;;;;7023865;28;20470;-77
2021/07/02 23:22:08;;;;;;;0.57;0.57;;;;;;;;;;7018702;28;20090;-77
2021/07/02 23:25:29;;;;;;;0.80;0.70;;;;;;;;;;7024226;28;20063;-77
2021/07/02 23:28:49;;;;;;;1.02;0.55;;;;;;;;;;7023764;28;20131;-76
2021/07/02 23:32:10;;;;;;;1.65;0.93;;;;;;;;;;7023524;28;20118;-77
2021/07/02 23:35:30;;;;;;;0.60;0.60;;;;;;;;;;7023007;28;20445;-78
2021/07/02 23:38:51;;;;;;;1.85;0.80;;;;;;;;;;7023007;28;20078;-76
2021/07/02 23:42:12;;;;;;;1.33;0.43;;;;;;;;;;7004613;28;20044;-77
2021/07/02 23:45:32;;;;;;;0.60;0.60;;;;;;;;;;7023219;28;20052;-79
2021/07/02 23:48:52;;;;;;;0.52;0.52;;;;;;;;;;7023393;28;20036;-78
2021/07/02 23:52:13;;;;;;;0.80;0.65;;;;;;;;;;7023204;28;20516;-79
2021/07/02 23:55:33;;;;;;;1.33;0.70;;;;;;;;;;7023151;28;20128;-78
2021/07/02 23:58:54;;;;;;;1.05;0.77;;;;;;;;;;7023368;28;20044;-78
